sensor_id;sensor_type;location;lat;lon;timestamp;temperature;humidity
33715;DHT22;20043;50.998;4.754;2023-01-05T00:00:24;12.10;99.90
33715;DHT22;20043;50.998;4.754;2023-01-05T00:02:49;12.00;99.90
33715;DHT22;20043;50.998;4.754;2023-01-05T00:05:15;12.10;99.90
33715;DHT22;20043;50.998;4.754;2023-01-05T00:07:41;12.10;99.90
33715;DHT22;20043;50.998;4.754;2023-01-05T00:10:07;12.00;99.90
33715;DHT22;20043;50.998;4.754;2023-01-05T00:12:53;12.10;99.90
33715;DHT22;20043;50.998;4.754;2023-01-05T00:15:37;12.10;99.90
33715;DHT22;20043;50.998;4.754;2023-01-05T00:18:21;12.10;99.90
33715;DHT22;20043;50.998;4.754;2023-01-05T00:21:13;12.00;99.90
33715;DHT22;20043;50.998;4.754;2023-01-05T00:23:57;12.00;99.90
33715;DHT22;20043;50.998;4.754;2023-01-05T00:26:22;12.00;99.90
33715;DHT22;20043;50.998;4.754;2023-01-05T00:28:48;12.10;99.90
33715;DHT22;20043;50.998;4.754;2023-01-05T00:31:14;12.10;99.90
33715;DHT22;20043;50.998;4.754;2023-01-05T00:33:39;12.10;99.90
33715;DHT22;20043;50.998;4.754;2023-01-05T00:36:08;12.10;99.90
33715;DHT22;20043;50.998;4.754;2023-01-05T00:38:34;12.20;99.90
33715;DHT22;20043;50.998;4.754;2023-01-05T00:41:00;12.20;99.90
33715;DHT22;20043;50.998;4.754;2023-01-05T00:43:25;12.10;99.90
33715;DHT22;20043;50.998;4.754;2023-01-05T00:45:51;12.20;99.90
33715;DHT22;20043;50.998;4.754;2023-01-05T00:48:16;12.30;99.90
33715;DHT22;20043;50.998;4.754;2023-01-05T00:50:42;12.30;99.90
33715;DHT22;20043;50.998;4.754;2023-01-05T00:53:07;12.20;99.90
33715;DHT22;20043;50.998;4.754;2023-01-05T00:55:33;12.20;99.90
33715;DHT22;20043;50.998;4.754;2023-01-05T00:57:59;12.30;99.90
33715;DHT22;20043;50.998;4.754;2023-01-05T01:00:24;12.20;99.90
33715;DHT22;20043;50.998;4.754;2023-01-05T01:02:50;12.20;99.90
33715;DHT22;20043;50.998;4.754;2023-01-05T01:05:17;12.20;99.90
33715;DHT22;20043;50.998;4.754;2023-01-05T01:07:43;12.20;99.90
33715;DHT22;20043;50.998;4.754;2023-01-05T01:10:09;12.20;99.90
33715;DHT22;20043;50.998;4.754;2023-01-05T01:12:35;12.20;99.90
33715;DHT22;20043;50.998;4.754;2023-01-05T01:15:01;12.20;99.90
33715;DHT22;20043;50.998;4.754;2023-01-05T01:17:27;12.30;99.90
33715;DHT22;20043;50.998;4.754;2023-01-05T01:19:52;12.30;99.90
33715;DHT22;20043;50.998;4.754;2023-01-05T01:22:18;12.20;99.90
33715;DHT22;20043;50.998;4.754;2023-01-05T01:24:43;12.10;99.90
33715;DHT22;20043;50.998;4.754;2023-01-05T01:27:09;12.10;99.90
33715;DHT22;20043;50.998;4.754;2023-01-05T01:29:34;12.10;99.90
33715;DHT22;20043;50.998;4.754;2023-01-05T01:32:00;12.10;99.90
33715;DHT22;20043;50.998;4.754;2023-01-05T01:34:26;12.20;99.90
33715;DHT22;20043;50.998;4.754;2023-01-05T01:36:54;12.10;99.90
33715;DHT22;20043;50.998;4.754;2023-01-05T01:39:20;12.00;99.90
33715;DHT22;20043;50.998;4.754;2023-01-05T01:41:45;11.90;99.90
33715;DHT22;20043;50.998;4.754;2023-01-05T01:47:39;11.90;99.90
33715;DHT22;20043;50.998;4.754;2023-01-05T01:52:40;11.90;99.90
33715;DHT22;20043;50.998;4.754;2023-01-05T01:55:06;12.00;99.90
33715;DHT22;20043;50.998;4.754;2023-01-05T01:57:33;11.90;99.90
33715;DHT22;20043;50.998;4.754;2023-01-05T02:00:02;11.90;99.90
33715;DHT22;20043;50.998;4.754;2023-01-05T02:02:28;11.90;99.90
33715;DHT22;20043;50.998;4.754;2023-01-05T02:04:58;11.90;99.90
33715;DHT22;20043;50.998;4.754;2023-01-05T02:07:25;12.00;99.90
33715;DHT22;20043;50.998;4.754;2023-01-05T02:09:53;12.00;99.90
33715;DHT22;20043;50.998;4.754;2023-01-05T02:32:18;12.10;99.90
33715;DHT22;20043;50.998;4.754;2023-01-05T02:38:11;12.20;99.90
33715;DHT22;20043;50.998;4.754;2023-01-05T02:40:38;12.30;99.90
33715;DHT22;20043;50.998;4.754;2023-01-05T02:43:08;12.30;99.90
33715;DHT22;20043;50.998;4.754;2023-01-05T02:45:34;12.20;99.90
33715;DHT22;20043;50.998;4.754;2023-01-05T02:48:00;12.20;99.90
33715;DHT22;20043;50.998;4.754;2023-01-05T02:53:23;12.10;99.90
33715;DHT22;20043;50.998;4.754;2023-01-05T03:01:07;12.10;99.90
33715;DHT22;20043;50.998;4.754;2023-01-05T03:03:47;12.10;99.90
33715;DHT22;20043;50.998;4.754;2023-01-05T03:06:22;12.20;99.90
33715;DHT22;20043;50.998;4.754;2023-01-05T03:08:55;12.20;99.90
33715;DHT22;20043;50.998;4.754;2023-01-05T03:11:48;12.20;99.90
33715;DHT22;20043;50.998;4.754;2023-01-05T03:14:37;12.20;99.90
33715;DHT22;20043;50.998;4.754;2023-01-05T03:17:08;12.10;99.90
33715;DHT22;20043;50.998;4.754;2023-01-05T03:19:36;12.10;99.90
33715;DHT22;20043;50.998;4.754;2023-01-05T03:22:16;12.20;99.90
33715;DHT22;20043;50.998;4.754;2023-01-05T03:25:02;12.20;99.90
33715;DHT22;20043;50.998;4.754;2023-01-05T03:27:47;12.30;99.90
33715;DHT22;20043;50.998;4.754;2023-01-05T03:34:00;12.20;99.90
33715;DHT22;20043;50.998;4.754;2023-01-05T03:37:07;12.20;99.90
33715;DHT22;20043;50.998;4.754;2023-01-05T03:39:36;12.30;99.90
33715;DHT22;20043;50.998;4.754;2023-01-05T03:42:03;12.30;99.90
33715;DHT22;20043;50.998;4.754;2023-01-05T03:44:29;12.30;99.90
33715;DHT22;20043;50.998;4.754;2023-01-05T03:46:55;12.30;99.90
33715;DHT22;20043;50.998;4.754;2023-01-05T03:49:21;12.30;99.90
33715;DHT22;20043;50.998;4.754;2023-01-05T03:51:46;12.30;99.90
33715;DHT22;20043;50.998;4.754;2023-01-05T03:54:12;12.30;99.90
33715;DHT22;20043;50.998;4.754;2023-01-05T03:56:37;12.30;99.90
33715;DHT22;20043;50.998;4.754;2023-01-05T03:59:03;12.30;99.90
33715;DHT22;20043;50.998;4.754;2023-01-05T04:01:29;12.20;99.90
33715;DHT22;20043;50.998;4.754;2023-01-05T04:03:54;12.20;99.90
33715;DHT22;20043;50.998;4.754;2023-01-05T04:06:20;12.30;99.90
33715;DHT22;20043;50.998;4.754;2023-01-05T04:08:45;12.30;99.90
33715;DHT22;20043;50.998;4.754;2023-01-05T04:11:20;12.30;99.90
33715;DHT22;20043;50.998;4.754;2023-01-05T04:13:46;12.40;99.90
33715;DHT22;20043;50.998;4.754;2023-01-05T04:16:12;12.30;99.90
33715;DHT22;20043;50.998;4.754;2023-01-05T04:18:38;12.30;99.90
33715;DHT22;20043;50.998;4.754;2023-01-05T04:21:04;12.30;99.90
33715;DHT22;20043;50.998;4.754;2023-01-05T04:23:29;12.30;99.90
33715;DHT22;20043;50.998;4.754;2023-01-05T04:25:55;12.20;99.90
33715;DHT22;20043;50.998;4.754;2023-01-05T04:28:21;12.20;99.90
33715;DHT22;20043;50.998;4.754;2023-01-05T04:30:51;12.20;99.90
33715;DHT22;20043;50.998;4.754;2023-01-05T04:33:18;12.20;99.90
33715;DHT22;20043;50.998;4.754;2023-01-05T04:35:44;12.20;99.90
33715;DHT22;20043;50.998;4.754;2023-01-05T04:38:10;12.30;99.90
33715;DHT22;20043;50.998;4.754;2023-01-05T04:40:36;12.40;99.90
33715;DHT22;20043;50.998;4.754;2023-01-05T04:43:02;12.30;99.90
33715;DHT22;20043;50.998;4.754;2023-01-05T04:45:28;12.30;99.90
33715;DHT22;20043;50.998;4.754;2023-01-05T04:47:53;12.40;99.90
33715;DHT22;20043;50.998;4.754;2023-01-05T04:50:19;12.30;99.90
33715;DHT22;20043;50.998;4.754;2023-01-05T04:52:44;12.30;99.90
33715;DHT22;20043;50.998;4.754;2023-01-05T04:55:10;12.20;99.90
33715;DHT22;20043;50.998;4.754;2023-01-05T04:57:36;12.20;99.90
33715;DHT22;20043;50.998;4.754;2023-01-05T05:00:03;12.30;99.90
33715;DHT22;20043;50.998;4.754;2023-01-05T05:02:29;12.30;99.90
33715;DHT22;20043;50.998;4.754;2023-01-05T05:04:55;12.30;99.90
33715;DHT22;20043;50.998;4.754;2023-01-05T05:07:20;12.30;99.90
33715;DHT22;20043;50.998;4.754;2023-01-05T05:09:46;12.30;99.90
33715;DHT22;20043;50.998;4.754;2023-01-05T05:12:12;12.30;99.90
33715;DHT22;20043;50.998;4.754;2023-01-05T05:14:38;12.30;99.90
33715;DHT22;20043;50.998;4.754;2023-01-05T05:17:04;12.20;99.90
33715;DHT22;20043;50.998;4.754;2023-01-05T05:19:30;12.30;99.90
33715;DHT22;20043;50.998;4.754;2023-01-05T05:21:55;12.30;99.90
33715;DHT22;20043;50.998;4.754;2023-01-05T05:24:21;12.30;99.90
33715;DHT22;20043;50.998;4.754;2023-01-05T05:26:47;12.30;99.90
33715;DHT22;20043;50.998;4.754;2023-01-05T05:29:12;12.40;99.90
33715;DHT22;20043;50.998;4.754;2023-01-05T05:31:38;12.30;99.90
33715;DHT22;20043;50.998;4.754;2023-01-05T05:34:04;12.20;99.90
33715;DHT22;20043;50.998;4.754;2023-01-05T05:36:29;12.30;99.90
33715;DHT22;20043;50.998;4.754;2023-01-05T05:38:55;12.30;99.90
33715;DHT22;20043;50.998;4.754;2023-01-05T05:41:22;12.20;99.90
33715;DHT22;20043;50.998;4.754;2023-01-05T05:43:48;12.30;99.90
33715;DHT22;20043;50.998;4.754;2023-01-05T05:46:13;12.10;99.90
33715;DHT22;20043;50.998;4.754;2023-01-05T05:48:39;12.20;99.90
33715;DHT22;20043;50.998;4.754;2023-01-05T05:51:04;12.30;99.90
33715;DHT22;20043;50.998;4.754;2023-01-05T05:53:30;12.20;99.90
33715;DHT22;20043;50.998;4.754;2023-01-05T05:55:55;12.30;99.90
33715;DHT22;20043;50.998;4.754;2023-01-05T05:58:21;12.30;99.90
33715;DHT22;20043;50.998;4.754;2023-01-05T06:00:46;12.30;99.90
33715;DHT22;20043;50.998;4.754;2023-01-05T06:03:12;12.30;99.90
33715;DHT22;20043;50.998;4.754;2023-01-05T06:05:38;12.30;99.90
33715;DHT22;20043;50.998;4.754;2023-01-05T06:08:03;12.40;99.90
33715;DHT22;20043;50.998;4.754;2023-01-05T06:10:29;12.30;99.90
33715;DHT22;20043;50.998;4.754;2023-01-05T06:12:55;12.30;99.90
33715;DHT22;20043;50.998;4.754;2023-01-05T06:15:22;12.30;99.90
33715;DHT22;20043;50.998;4.754;2023-01-05T06:17:47;12.30;99.90
33715;DHT22;20043;50.998;4.754;2023-01-05T06:20:14;12.30;99.90
33715;DHT22;20043;50.998;4.754;2023-01-05T06:22:41;12.30;99.90
33715;DHT22;20043;50.998;4.754;2023-01-05T06:25:07;12.30;99.90
33715;DHT22;20043;50.998;4.754;2023-01-05T06:27:33;12.30;99.90
33715;DHT22;20043;50.998;4.754;2023-01-05T06:29:58;12.20;99.90
33715;DHT22;20043;50.998;4.754;2023-01-05T06:32:24;12.10;99.90
33715;DHT22;20043;50.998;4.754;2023-01-05T06:34:50;12.20;99.90
33715;DHT22;20043;50.998;4.754;2023-01-05T06:37:15;12.30;99.90
33715;DHT22;20043;50.998;4.754;2023-01-05T06:39:41;12.30;99.90
33715;DHT22;20043;50.998;4.754;2023-01-05T06:42:07;12.30;99.90
33715;DHT22;20043;50.998;4.754;2023-01-05T06:44:32;12.30;99.90
33715;DHT22;20043;50.998;4.754;2023-01-05T06:46:58;12.30;99.90
33715;DHT22;20043;50.998;4.754;2023-01-05T06:49:23;12.20;99.90
33715;DHT22;20043;50.998;4.754;2023-01-05T06:51:49;12.30;99.90
33715;DHT22;20043;50.998;4.754;2023-01-05T06:54:14;12.20;99.90
33715;DHT22;20043;50.998;4.754;2023-01-05T06:56:40;12.20;99.90
33715;DHT22;20043;50.998;4.754;2023-01-05T06:59:05;12.20;99.90
33715;DHT22;20043;50.998;4.754;2023-01-05T07:01:31;12.30;99.90
33715;DHT22;20043;50.998;4.754;2023-01-05T07:03:57;12.20;99.90
33715;DHT22;20043;50.998;4.754;2023-01-05T07:06:22;12.00;99.90
33715;DHT22;20043;50.998;4.754;2023-01-05T07:08:48;12.00;99.90
33715;DHT22;20043;50.998;4.754;2023-01-05T07:11:13;12.10;99.90
33715;DHT22;20043;50.998;4.754;2023-01-05T07:13:39;12.10;99.90
33715;DHT22;20043;50.998;4.754;2023-01-05T07:16:05;12.10;99.90
33715;DHT22;20043;50.998;4.754;2023-01-05T07:18:30;12.10;99.90
33715;DHT22;20043;50.998;4.754;2023-01-05T07:20:58;12.10;99.90
33715;DHT22;20043;50.998;4.754;2023-01-05T07:23:24;12.20;99.90
33715;DHT22;20043;50.998;4.754;2023-01-05T07:25:50;12.30;99.90
33715;DHT22;20043;50.998;4.754;2023-01-05T07:28:15;12.30;99.90
33715;DHT22;20043;50.998;4.754;2023-01-05T07:30:41;12.20;99.90
33715;DHT22;20043;50.998;4.754;2023-01-05T07:33:07;12.30;99.90
33715;DHT22;20043;50.998;4.754;2023-01-05T07:35:32;12.20;99.90
33715;DHT22;20043;50.998;4.754;2023-01-05T07:37:58;12.20;99.90
33715;DHT22;20043;50.998;4.754;2023-01-05T07:40:25;12.30;99.90
33715;DHT22;20043;50.998;4.754;2023-01-05T07:42:51;12.20;99.90
33715;DHT22;20043;50.998;4.754;2023-01-05T07:45:17;12.10;99.90
33715;DHT22;20043;50.998;4.754;2023-01-05T07:47:43;12.20;99.90
33715;DHT22;20043;50.998;4.754;2023-01-05T07:50:09;12.20;99.90
33715;DHT22;20043;50.998;4.754;2023-01-05T07:52:34;12.20;99.90
33715;DHT22;20043;50.998;4.754;2023-01-05T07:55:00;12.20;99.90
33715;DHT22;20043;50.998;4.754;2023-01-05T07:57:25;12.20;99.90
33715;DHT22;20043;50.998;4.754;2023-01-05T07:59:51;12.20;99.90
33715;DHT22;20043;50.998;4.754;2023-01-05T08:02:16;12.20;99.90
33715;DHT22;20043;50.998;4.754;2023-01-05T08:04:42;12.10;99.90
33715;DHT22;20043;50.998;4.754;2023-01-05T08:07:08;12.10;99.90
33715;DHT22;20043;50.998;4.754;2023-01-05T08:09:36;12.10;99.90
33715;DHT22;20043;50.998;4.754;2023-01-05T08:12:20;12.00;99.90
33715;DHT22;20043;50.998;4.754;2023-01-05T08:14:46;12.20;99.90
33715;DHT22;20043;50.998;4.754;2023-01-05T08:17:12;12.10;99.90
33715;DHT22;20043;50.998;4.754;2023-01-05T08:19:38;12.10;99.90
33715;DHT22;20043;50.998;4.754;2023-01-05T08:22:03;12.00;99.90
33715;DHT22;20043;50.998;4.754;2023-01-05T08:24:29;12.10;99.90
33715;DHT22;20043;50.998;4.754;2023-01-05T08:26:54;12.20;99.90
33715;DHT22;20043;50.998;4.754;2023-01-05T08:29:20;12.10;99.90
33715;DHT22;20043;50.998;4.754;2023-01-05T08:31:46;12.20;99.90
33715;DHT22;20043;50.998;4.754;2023-01-05T08:34:12;12.20;99.90
33715;DHT22;20043;50.998;4.754;2023-01-05T08:36:37;12.20;99.90
33715;DHT22;20043;50.998;4.754;2023-01-05T08:39:04;12.30;99.90
33715;DHT22;20043;50.998;4.754;2023-01-05T08:41:32;12.30;99.90
33715;DHT22;20043;50.998;4.754;2023-01-05T08:44:02;12.30;99.90
33715;DHT22;20043;50.998;4.754;2023-01-05T08:46:31;12.30;99.90
33715;DHT22;20043;50.998;4.754;2023-01-05T08:48:58;12.10;99.90
33715;DHT22;20043;50.998;4.754;2023-01-05T08:51:25;12.10;99.90
33715;DHT22;20043;50.998;4.754;2023-01-05T08:53:51;12.20;99.90
33715;DHT22;20043;50.998;4.754;2023-01-05T08:56:17;12.10;99.90
33715;DHT22;20043;50.998;4.754;2023-01-05T08:58:43;12.00;99.90
33715;DHT22;20043;50.998;4.754;2023-01-05T09:01:14;12.00;99.90
33715;DHT22;20043;50.998;4.754;2023-01-05T09:03:40;12.10;99.90
33715;DHT22;20043;50.998;4.754;2023-01-05T09:06:07;12.00;99.90
33715;DHT22;20043;50.998;4.754;2023-01-05T09:08:34;12.00;99.90
33715;DHT22;20043;50.998;4.754;2023-01-05T09:13:32;12.20;99.90
33715;DHT22;20043;50.998;4.754;2023-01-05T09:16:03;12.30;99.90
33715;DHT22;20043;50.998;4.754;2023-01-05T09:18:29;12.20;99.90
33715;DHT22;20043;50.998;4.754;2023-01-05T09:20:55;12.10;99.90
33715;DHT22;20043;50.998;4.754;2023-01-05T09:23:20;12.20;99.90
33715;DHT22;20043;50.998;4.754;2023-01-05T09:25:46;12.10;99.90
33715;DHT22;20043;50.998;4.754;2023-01-05T09:28:11;12.20;99.90
33715;DHT22;20043;50.998;4.754;2023-01-05T09:30:37;12.30;99.90
33715;DHT22;20043;50.998;4.754;2023-01-05T09:33:02;12.20;99.90
33715;DHT22;20043;50.998;4.754;2023-01-05T09:35:28;12.30;99.90
33715;DHT22;20043;50.998;4.754;2023-01-05T09:37:54;12.30;99.90
33715;DHT22;20043;50.998;4.754;2023-01-05T09:40:19;12.30;99.90
33715;DHT22;20043;50.998;4.754;2023-01-05T09:42:45;12.30;99.90
33715;DHT22;20043;50.998;4.754;2023-01-05T09:45:13;12.40;99.90
33715;DHT22;20043;50.998;4.754;2023-01-05T09:47:44;12.40;99.90
33715;DHT22;20043;50.998;4.754;2023-01-05T09:50:18;12.40;99.90
33715;DHT22;20043;50.998;4.754;2023-01-05T09:52:44;12.40;99.90
33715;DHT22;20043;50.998;4.754;2023-01-05T09:55:18;12.40;99.90
33715;DHT22;20043;50.998;4.754;2023-01-05T09:57:55;12.40;99.90
33715;DHT22;20043;50.998;4.754;2023-01-05T10:00:23;12.50;99.90
33715;DHT22;20043;50.998;4.754;2023-01-05T10:02:56;12.50;99.90
33715;DHT22;20043;50.998;4.754;2023-01-05T10:05:25;12.40;99.90
33715;DHT22;20043;50.998;4.754;2023-01-05T10:08:07;12.40;99.90
33715;DHT22;20043;50.998;4.754;2023-01-05T10:10:57;12.40;99.90
33715;DHT22;20043;50.998;4.754;2023-01-05T10:14:12;12.60;99.90
33715;DHT22;20043;50.998;4.754;2023-01-05T10:16:41;12.50;99.90
33715;DHT22;20043;50.998;4.754;2023-01-05T10:19:13;12.50;99.90
33715;DHT22;20043;50.998;4.754;2023-01-05T10:21:55;12.60;99.90
33715;DHT22;20043;50.998;4.754;2023-01-05T10:24:32;12.80;99.90
33715;DHT22;20043;50.998;4.754;2023-01-05T10:27:08;12.70;99.90
33715;DHT22;20043;50.998;4.754;2023-01-05T10:29:51;12.80;99.90
33715;DHT22;20043;50.998;4.754;2023-01-05T10:35:00;12.70;99.90
33715;DHT22;20043;50.998;4.754;2023-01-05T10:45:30;12.50;99.90
33715;DHT22;20043;50.998;4.754;2023-01-05T10:47:56;12.50;99.90
33715;DHT22;20043;50.998;4.754;2023-01-05T10:50:38;12.60;99.90
33715;DHT22;20043;50.998;4.754;2023-01-05T10:53:10;12.60;99.90
33715;DHT22;20043;50.998;4.754;2023-01-05T10:56:05;12.70;99.90
33715;DHT22;20043;50.998;4.754;2023-01-05T10:58:36;12.60;99.90
33715;DHT22;20043;50.998;4.754;2023-01-05T11:03:44;12.60;99.90
33715;DHT22;20043;50.998;4.754;2023-01-05T11:06:28;12.70;99.90
33715;DHT22;20043;50.998;4.754;2023-01-05T11:09:03;12.70;99.90
33715;DHT22;20043;50.998;4.754;2023-01-05T11:11:28;12.80;99.90
33715;DHT22;20043;50.998;4.754;2023-01-05T11:13:55;12.80;99.90
33715;DHT22;20043;50.998;4.754;2023-01-05T11:16:26;12.80;99.90
33715;DHT22;20043;50.998;4.754;2023-01-05T11:21:38;12.80;99.90
33715;DHT22;20043;50.998;4.754;2023-01-05T11:24:32;12.90;99.90
33715;DHT22;20043;50.998;4.754;2023-01-05T11:27:03;12.90;99.90
33715;DHT22;20043;50.998;4.754;2023-01-05T11:29:30;13.00;99.90
33715;DHT22;20043;50.998;4.754;2023-01-05T11:32:02;13.00;99.90
33715;DHT22;20043;50.998;4.754;2023-01-05T11:34:44;13.10;99.90
33715;DHT22;20043;50.998;4.754;2023-01-05T11:45:06;13.50;99.90
33715;DHT22;20043;50.998;4.754;2023-01-05T11:47:47;13.60;99.90
33715;DHT22;20043;50.998;4.754;2023-01-05T11:50:29;13.70;99.90
33715;DHT22;20043;50.998;4.754;2023-01-05T11:52:58;13.90;99.90
33715;DHT22;20043;50.998;4.754;2023-01-05T12:05:53;13.80;99.90
33715;DHT22;20043;50.998;4.754;2023-01-05T12:08:28;13.70;99.90
33715;DHT22;20043;50.998;4.754;2023-01-05T12:16:45;13.70;99.90
33715;DHT22;20043;50.998;4.754;2023-01-05T12:30:26;13.70;99.90
33715;DHT22;20043;50.998;4.754;2023-01-05T12:33:18;13.60;99.90
33715;DHT22;20043;50.998;4.754;2023-01-05T12:35:54;13.70;99.90
33715;DHT22;20043;50.998;4.754;2023-01-05T12:49:59;13.70;99.90
33715;DHT22;20043;50.998;4.754;2023-01-05T12:52:39;13.80;99.90
33715;DHT22;20043;50.998;4.754;2023-01-05T12:55:24;13.80;99.90
33715;DHT22;20043;50.998;4.754;2023-01-05T12:58:02;13.80;99.90
33715;DHT22;20043;50.998;4.754;2023-01-05T13:00:33;13.80;99.90
33715;DHT22;20043;50.998;4.754;2023-01-05T13:03:08;13.80;99.90
33715;DHT22;20043;50.998;4.754;2023-01-05T13:05:52;13.80;99.90
33715;DHT22;20043;50.998;4.754;2023-01-05T13:14:01;13.90;99.90
33715;DHT22;20043;50.998;4.754;2023-01-05T13:16:31;14.00;99.90
33715;DHT22;20043;50.998;4.754;2023-01-05T13:21:54;13.80;99.90
33715;DHT22;20043;50.998;4.754;2023-01-05T13:24:24;13.40;99.90
33715;DHT22;20043;50.998;4.754;2023-01-05T13:26:53;13.10;99.90
33715;DHT22;20043;50.998;4.754;2023-01-05T13:29:40;13.00;99.90
33715;DHT22;20043;50.998;4.754;2023-01-05T13:38:37;13.20;99.90
33715;DHT22;20043;50.998;4.754;2023-01-05T13:41:25;13.20;99.90
33715;DHT22;20043;50.998;4.754;2023-01-05T13:52:54;12.60;99.90
33715;DHT22;20043;50.998;4.754;2023-01-05T13:55:23;12.60;99.90
33715;DHT22;20043;50.998;4.754;2023-01-05T13:57:49;12.60;99.90
33715;DHT22;20043;50.998;4.754;2023-01-05T14:00:22;12.70;99.90
33715;DHT22;20043;50.998;4.754;2023-01-05T14:03:13;12.70;99.90
33715;DHT22;20043;50.998;4.754;2023-01-05T14:05:57;12.80;99.90
33715;DHT22;20043;50.998;4.754;2023-01-05T14:08:30;12.90;99.90
33715;DHT22;20043;50.998;4.754;2023-01-05T14:11:17;12.90;99.90
33715;DHT22;20043;50.998;4.754;2023-01-05T14:13:47;12.90;99.90
33715;DHT22;20043;50.998;4.754;2023-01-05T14:19:24;12.90;99.90
33715;DHT22;20043;50.998;4.754;2023-01-05T14:24:45;13.00;99.90
33715;DHT22;20043;50.998;4.754;2023-01-05T14:27:18;13.10;99.90
33715;DHT22;20043;50.998;4.754;2023-01-05T14:37:36;13.10;99.90
33715;DHT22;20043;50.998;4.754;2023-01-05T14:40:14;13.10;99.90
33715;DHT22;20043;50.998;4.754;2023-01-05T14:42:46;13.10;99.90
33715;DHT22;20043;50.998;4.754;2023-01-05T14:45:30;13.10;99.90
33715;DHT22;20043;50.998;4.754;2023-01-05T14:47:58;13.20;99.90
33715;DHT22;20043;50.998;4.754;2023-01-05T14:50:40;13.30;99.90
33715;DHT22;20043;50.998;4.754;2023-01-05T15:03:47;13.50;99.90
33715;DHT22;20043;50.998;4.754;2023-01-05T15:06:23;13.40;99.90
33715;DHT22;20043;50.998;4.754;2023-01-05T15:26:10;13.30;99.90
33715;DHT22;20043;50.998;4.754;2023-01-05T15:32:16;13.40;99.90
33715;DHT22;20043;50.998;4.754;2023-01-05T15:34:47;13.40;99.90
33715;DHT22;20043;50.998;4.754;2023-01-05T15:37:29;13.50;99.90
33715;DHT22;20043;50.998;4.754;2023-01-05T15:39:56;13.50;99.90
33715;DHT22;20043;50.998;4.754;2023-01-05T15:44:54;13.10;99.90
33715;DHT22;20043;50.998;4.754;2023-01-05T15:47:27;13.10;99.90
33715;DHT22;20043;50.998;4.754;2023-01-05T15:49:59;13.20;99.90
33715;DHT22;20043;50.998;4.754;2023-01-05T15:52:35;13.30;99.90
33715;DHT22;20043;50.998;4.754;2023-01-05T15:57:37;13.30;99.90
33715;DHT22;20043;50.998;4.754;2023-01-05T16:00:15;13.30;99.90
33715;DHT22;20043;50.998;4.754;2023-01-05T16:02:41;13.30;99.90
33715;DHT22;20043;50.998;4.754;2023-01-05T16:07:42;13.20;99.90
33715;DHT22;20043;50.998;4.754;2023-01-05T16:10:17;13.20;99.90
33715;DHT22;20043;50.998;4.754;2023-01-05T16:12:45;13.10;99.90
33715;DHT22;20043;50.998;4.754;2023-01-05T16:15:14;13.10;99.90
33715;DHT22;20043;50.998;4.754;2023-01-05T16:17:41;13.10;99.90
33715;DHT22;20043;50.998;4.754;2023-01-05T16:20:25;13.20;99.90
33715;DHT22;20043;50.998;4.754;2023-01-05T16:22:57;13.20;99.90
33715;DHT22;20043;50.998;4.754;2023-01-05T16:25:27;13.20;99.90
33715;DHT22;20043;50.998;4.754;2023-01-05T16:27:59;13.20;99.90
33715;DHT22;20043;50.998;4.754;2023-01-05T16:30:37;13.10;99.90
33715;DHT22;20043;50.998;4.754;2023-01-05T16:35:44;13.00;99.90
33715;DHT22;20043;50.998;4.754;2023-01-05T16:40:39;13.10;99.90
33715;DHT22;20043;50.998;4.754;2023-01-05T16:51:09;13.30;99.90
33715;DHT22;20043;50.998;4.754;2023-01-05T16:53:41;13.30;99.90
33715;DHT22;20043;50.998;4.754;2023-01-05T16:58:45;13.50;99.90
33715;DHT22;20043;50.998;4.754;2023-01-05T17:01:14;13.50;99.90
33715;DHT22;20043;50.998;4.754;2023-01-05T17:03:41;13.50;99.90
33715;DHT22;20043;50.998;4.754;2023-01-05T17:06:28;13.60;99.90
33715;DHT22;20043;50.998;4.754;2023-01-05T17:08:59;13.60;99.90
33715;DHT22;20043;50.998;4.754;2023-01-05T17:11:43;13.60;99.90
33715;DHT22;20043;50.998;4.754;2023-01-05T17:14:09;13.60;99.90
33715;DHT22;20043;50.998;4.754;2023-01-05T17:16:35;13.40;99.90
33715;DHT22;20043;50.998;4.754;2023-01-05T17:19:04;13.30;99.90
33715;DHT22;20043;50.998;4.754;2023-01-05T17:21:33;13.30;99.90
33715;DHT22;20043;50.998;4.754;2023-01-05T17:23:59;13.30;99.90
33715;DHT22;20043;50.998;4.754;2023-01-05T17:26:29;13.30;99.90
33715;DHT22;20043;50.998;4.754;2023-01-05T17:28:58;13.20;99.90
33715;DHT22;20043;50.998;4.754;2023-01-05T17:31:24;13.20;99.90
33715;DHT22;20043;50.998;4.754;2023-01-05T17:33:50;13.20;99.90
33715;DHT22;20043;50.998;4.754;2023-01-05T17:36:16;13.10;99.90
33715;DHT22;20043;50.998;4.754;2023-01-05T17:38:42;13.10;99.90
33715;DHT22;20043;50.998;4.754;2023-01-05T17:41:11;13.20;99.90
33715;DHT22;20043;50.998;4.754;2023-01-05T17:43:37;13.20;99.90
33715;DHT22;20043;50.998;4.754;2023-01-05T17:46:03;13.20;99.90
33715;DHT22;20043;50.998;4.754;2023-01-05T17:48:28;13.10;99.90
33715;DHT22;20043;50.998;4.754;2023-01-05T17:50:54;13.20;99.90
33715;DHT22;20043;50.998;4.754;2023-01-05T17:53:20;13.20;99.90
33715;DHT22;20043;50.998;4.754;2023-01-05T17:55:45;13.20;99.90
33715;DHT22;20043;50.998;4.754;2023-01-05T17:58:12;13.20;99.90
33715;DHT22;20043;50.998;4.754;2023-01-05T18:00:38;13.10;99.90
33715;DHT22;20043;50.998;4.754;2023-01-05T18:03:11;13.20;99.90
33715;DHT22;20043;50.998;4.754;2023-01-05T18:05:36;13.20;99.90
33715;DHT22;20043;50.998;4.754;2023-01-05T18:08:02;13.30;99.90
33715;DHT22;20043;50.998;4.754;2023-01-05T18:10:27;13.30;99.90
33715;DHT22;20043;50.998;4.754;2023-01-05T18:12:54;13.20;99.90
33715;DHT22;20043;50.998;4.754;2023-01-05T18:15:19;13.10;99.90
33715;DHT22;20043;50.998;4.754;2023-01-05T18:17:45;13.10;99.90
33715;DHT22;20043;50.998;4.754;2023-01-05T18:20:12;13.10;99.90
33715;DHT22;20043;50.998;4.754;2023-01-05T18:22:38;13.10;99.90
33715;DHT22;20043;50.998;4.754;2023-01-05T18:25:04;13.00;99.90
33715;DHT22;20043;50.998;4.754;2023-01-05T18:27:30;13.10;99.90
33715;DHT22;20043;50.998;4.754;2023-01-05T18:30:00;13.10;99.90
33715;DHT22;20043;50.998;4.754;2023-01-05T18:32:26;13.10;99.90
33715;DHT22;20043;50.998;4.754;2023-01-05T18:34:51;13.10;99.90
33715;DHT22;20043;50.998;4.754;2023-01-05T18:37:17;13.00;99.90
33715;DHT22;20043;50.998;4.754;2023-01-05T18:39:42;13.00;99.90
33715;DHT22;20043;50.998;4.754;2023-01-05T18:42:09;12.90;99.90
33715;DHT22;20043;50.998;4.754;2023-01-05T18:44:34;12.90;99.90
33715;DHT22;20043;50.998;4.754;2023-01-05T18:47:00;13.00;99.90
33715;DHT22;20043;50.998;4.754;2023-01-05T18:49:26;12.90;99.90
33715;DHT22;20043;50.998;4.754;2023-01-05T18:51:51;12.90;99.90
33715;DHT22;20043;50.998;4.754;2023-01-05T18:54:18;13.00;99.90
33715;DHT22;20043;50.998;4.754;2023-01-05T18:56:43;13.00;99.90
33715;DHT22;20043;50.998;4.754;2023-01-05T18:59:11;13.20;99.90
33715;DHT22;20043;50.998;4.754;2023-01-05T19:01:36;13.20;99.90